sensor_id;sensor_type;location;lat;lon;timestamp;pressure;altitude;pressure_sealevel;temperature;humidity
55468;BME280;41332;42.702;23.200;2022-10-26T00:00:04;94480.38;;;14.31;62.55
55468;BME280;41332;42.702;23.200;2022-10-26T00:02:29;94476.97;;;14.31;62.34
55468;BME280;41332;42.702;23.200;2022-10-26T00:04:55;94474.13;;;14.24;63.05
55468;BME280;41332;42.702;23.200;2022-10-26T00:07:20;94475.09;;;14.31;63.02
55468;BME280;41332;42.702;23.200;2022-10-26T00:09:45;94473.97;;;14.32;62.53
55468;BME280;41332;42.702;23.200;2022-10-26T00:12:11;94468.91;;;14.27;62.73
55468;BME280;41332;42.702;23.200;2022-10-26T00:14:36;94472.13;;;14.33;62.68
55468;BME280;41332;42.702;23.200;2022-10-26T00:17:02;94472.34;;;14.28;62.63
55468;BME280;41332;42.702;23.200;2022-10-26T00:19:27;94479.81;;;14.26;62.46
55468;BME280;41332;42.702;23.200;2022-10-26T00:21:53;94479.41;;;14.11;63.02
55468;BME280;41332;42.702;23.200;2022-10-26T00:24:18;94473.50;;;14.02;63.29
55468;BME280;41332;42.702;23.200;2022-10-26T00:26:43;94478.66;;;13.98;63.19
55468;BME280;41332;42.702;23.200;2022-10-26T00:29:11;94475.69;;;14.00;63.37
55468;BME280;41332;42.702;23.200;2022-10-26T00:31:36;94478.66;;;13.98;63.26
55468;BME280;41332;42.702;23.200;2022-10-26T00:34:02;94485.72;;;13.94;63.43
55468;BME280;41332;42.702;23.200;2022-10-26T00:36:27;94485.94;;;13.89;63.40
55468;BME280;41332;42.702;23.200;2022-10-26T00:38:54;94475.81;;;13.79;64.11
55468;BME280;41332;42.702;23.200;2022-10-26T00:41:25;94477.47;;;13.83;63.99
55468;BME280;41332;42.702;23.200;2022-10-26T00:43:52;94472.06;;;13.80;63.60
55468;BME280;41332;42.702;23.200;2022-10-26T00:46:28;94474.28;;;13.78;63.66
55468;BME280;41332;42.702;23.200;2022-10-26T00:48:57;94483.84;;;13.82;63.70
55468;BME280;41332;42.702;23.200;2022-10-26T00:53:50;94473.06;;;13.75;63.53
55468;BME280;41332;42.702;23.200;2022-10-26T00:56:16;94470.63;;;13.70;63.88
55468;BME280;41332;42.702;23.200;2022-10-26T00:58:43;94465.81;;;13.72;63.54
55468;BME280;41332;42.702;23.200;2022-10-26T01:01:08;94458.97;;;13.59;64.10
55468;BME280;41332;42.702;23.200;2022-10-26T01:03:34;94457.53;;;13.61;64.49
55468;BME280;41332;42.702;23.200;2022-10-26T01:06:01;94459.31;;;13.57;64.27
55468;BME280;41332;42.702;23.200;2022-10-26T01:08:28;94462.63;;;13.54;64.46
55468;BME280;41332;42.702;23.200;2022-10-26T01:10:55;94462.94;;;13.52;64.21
55468;BME280;41332;42.702;23.200;2022-10-26T01:13:21;94462.84;;;13.49;64.53
55468;BME280;41332;42.702;23.200;2022-10-26T01:21:18;94453.81;;;13.50;64.47
55468;BME280;41332;42.702;23.200;2022-10-26T01:27:14;94457.19;;;13.38;65.33
55468;BME280;41332;42.702;23.200;2022-10-26T01:31:57;94456.72;;;13.24;66.28
55468;BME280;41332;42.702;23.200;2022-10-26T01:34:41;94462.09;;;13.27;66.79
55468;BME280;41332;42.702;23.200;2022-10-26T01:37:14;94465.22;;;13.42;66.77
55468;BME280;41332;42.702;23.200;2022-10-26T01:39:52;94441.69;;;13.37;66.20
55468;BME280;41332;42.702;23.200;2022-10-26T01:42:18;94457.06;;;13.34;66.58
55468;BME280;41332;42.702;23.200;2022-10-26T01:44:48;94451.44;;;13.24;67.21
55468;BME280;41332;42.702;23.200;2022-10-26T01:47:17;94450.56;;;13.19;67.66
55468;BME280;41332;42.702;23.200;2022-10-26T01:49:48;94455.41;;;13.17;68.07
55468;BME280;41332;42.702;23.200;2022-10-26T01:52:17;94447.59;;;13.21;68.19
55468;BME280;41332;42.702;23.200;2022-10-26T01:54:42;94452.44;;;13.31;68.24
55468;BME280;41332;42.702;23.200;2022-10-26T01:57:10;94444.41;;;13.28;68.35
55468;BME280;41332;42.702;23.200;2022-10-26T02:03:16;94445.41;;;13.35;68.45
55468;BME280;41332;42.702;23.200;2022-10-26T02:05:46;94443.53;;;13.24;68.57
55468;BME280;41332;42.702;23.200;2022-10-26T02:14:33;94443.84;;;13.22;68.19
55468;BME280;41332;42.702;23.200;2022-10-26T02:22:35;94430.47;;;13.15;67.46
55468;BME280;41332;42.702;23.200;2022-10-26T02:25:30;94457.84;;;13.35;67.57
55468;BME280;41332;42.702;23.200;2022-10-26T02:28:04;94434.84;;;13.23;67.13
55468;BME280;41332;42.702;23.200;2022-10-26T02:30:41;94448.97;;;13.40;67.07
55468;BME280;41332;42.702;23.200;2022-10-26T02:33:14;94419.91;;;13.15;66.96
55468;BME280;41332;42.702;23.200;2022-10-26T02:38:32;94449.47;;;13.33;66.87
55468;BME280;41332;42.702;23.200;2022-10-26T02:41:02;94427.59;;;13.20;67.03
55468;BME280;41332;42.702;23.200;2022-10-26T02:43:29;94440.25;;;13.27;67.01
55468;BME280;41332;42.702;23.200;2022-10-26T02:46:04;94445.72;;;13.22;67.40
55468;BME280;41332;42.702;23.200;2022-10-26T02:48:31;94458.09;;;13.42;67.15
55468;BME280;41332;42.702;23.200;2022-10-26T02:51:16;94441.06;;;13.40;66.86
55468;BME280;41332;42.702;23.200;2022-10-26T02:54:00;94455.78;;;13.53;66.32
55468;BME280;41332;42.702;23.200;2022-10-26T03:00:16;94447.84;;;13.41;66.11
55468;BME280;41332;42.702;23.200;2022-10-26T03:02:44;94466.34;;;13.53;66.48
55468;BME280;41332;42.702;23.200;2022-10-26T03:05:15;94445.63;;;13.30;65.98
55468;BME280;41332;42.702;23.200;2022-10-26T03:08:03;94470.06;;;13.52;65.79
55468;BME280;41332;42.702;23.200;2022-10-26T03:10:55;94451.81;;;13.34;66.16
55468;BME280;41332;42.702;23.200;2022-10-26T03:13:38;94457.94;;;13.26;66.11
55468;BME280;41332;42.702;23.200;2022-10-26T03:16:03;94486.59;;;13.28;66.91
55468;BME280;41332;42.702;23.200;2022-10-26T03:18:31;94476.78;;;13.37;66.08
55468;BME280;41332;42.702;23.200;2022-10-26T03:20:57;94467.94;;;13.33;65.88
55468;BME280;41332;42.702;23.200;2022-10-26T03:23:22;94471.34;;;13.33;65.74
55468;BME280;41332;42.702;23.200;2022-10-26T03:25:55;94454.41;;;13.22;66.06
55468;BME280;41332;42.702;23.200;2022-10-26T03:28:25;94468.47;;;13.14;66.27
55468;BME280;41332;42.702;23.200;2022-10-26T03:30:50;94484.94;;;13.11;66.73
55468;BME280;41332;42.702;23.200;2022-10-26T03:33:16;94476.53;;;12.96;66.62
55468;BME280;41332;42.702;23.200;2022-10-26T03:35:42;94485.50;;;12.83;66.54
55468;BME280;41332;42.702;23.200;2022-10-26T03:38:08;94474.50;;;12.81;65.94
55468;BME280;41332;42.702;23.200;2022-10-26T03:40:34;94469.03;;;12.86;66.31
55468;BME280;41332;42.702;23.200;2022-10-26T03:43:00;94491.47;;;12.92;66.12
55468;BME280;41332;42.702;23.200;2022-10-26T03:45:26;94500.66;;;13.07;65.95
55468;BME280;41332;42.702;23.200;2022-10-26T03:47:51;94495.00;;;12.96;65.90
55468;BME280;41332;42.702;23.200;2022-10-26T03:50:19;94490.38;;;12.93;65.48
55468;BME280;41332;42.702;23.200;2022-10-26T03:52:46;94515.31;;;12.96;65.95
55468;BME280;41332;42.702;23.200;2022-10-26T03:55:11;94479.97;;;12.76;66.02
55468;BME280;41332;42.702;23.200;2022-10-26T03:57:44;94498.75;;;12.74;66.67
55468;BME280;41332;42.702;23.200;2022-10-26T04:00:14;94497.88;;;12.70;67.36
55468;BME280;41332;42.702;23.200;2022-10-26T04:02:44;94505.50;;;12.63;68.15
55468;BME280;41332;42.702;23.200;2022-10-26T04:05:12;94504.22;;;12.69;67.56
55468;BME280;41332;42.702;23.200;2022-10-26T04:07:41;94510.22;;;12.57;68.16
55468;BME280;41332;42.702;23.200;2022-10-26T04:10:07;94506.31;;;12.63;67.91
55468;BME280;41332;42.702;23.200;2022-10-26T04:12:40;94506.59;;;12.62;67.81
55468;BME280;41332;42.702;23.200;2022-10-26T04:15:06;94507.50;;;12.45;68.19
55468;BME280;41332;42.702;23.200;2022-10-26T04:17:31;94503.97;;;12.41;68.20
55468;BME280;41332;42.702;23.200;2022-10-26T04:19:57;94506.38;;;12.33;67.96
55468;BME280;41332;42.702;23.200;2022-10-26T04:22:22;94493.38;;;12.28;68.21
55468;BME280;41332;42.702;23.200;2022-10-26T04:24:48;94505.56;;;12.33;68.21
55468;BME280;41332;42.702;23.200;2022-10-26T04:27:14;94517.66;;;12.34;68.18
55468;BME280;41332;42.702;23.200;2022-10-26T04:29:40;94520.53;;;12.20;67.93
55468;BME280;41332;42.702;23.200;2022-10-26T04:32:05;94520.84;;;12.18;68.01
55468;BME280;41332;42.702;23.200;2022-10-26T04:34:31;94519.94;;;12.14;68.04
55468;BME280;41332;42.702;23.200;2022-10-26T04:36:57;94508.53;;;12.10;68.08
55468;BME280;41332;42.702;23.200;2022-10-26T04:39:22;94511.59;;;12.12;68.07
55468;BME280;41332;42.702;23.200;2022-10-26T04:41:48;94516.41;;;12.10;68.24
55468;BME280;41332;42.702;23.200;2022-10-26T04:44:13;94500.81;;;12.05;68.35
55468;BME280;41332;42.702;23.200;2022-10-26T04:46:39;94506.06;;;12.05;68.22
55468;BME280;41332;42.702;23.200;2022-10-26T04:49:04;94513.38;;;11.99;68.66
55468;BME280;41332;42.702;23.200;2022-10-26T04:51:29;94520.84;;;11.88;69.22
55468;BME280;41332;42.702;23.200;2022-10-26T04:53:55;94528.44;;;11.81;69.31
55468;BME280;41332;42.702;23.200;2022-10-26T04:56:22;94495.09;;;11.55;69.92
55468;BME280;41332;42.702;23.200;2022-10-26T04:58:53;94530.63;;;11.79;70.17
55468;BME280;41332;42.702;23.200;2022-10-26T05:01:18;94530.69;;;11.62;70.59
55468;BME280;41332;42.702;23.200;2022-10-26T05:03:43;94506.28;;;11.44;71.71
55468;BME280;41332;42.702;23.200;2022-10-26T05:06:09;94539.88;;;11.47;72.12
55468;BME280;41332;42.702;23.200;2022-10-26T05:08:34;94539.81;;;11.64;71.64
55468;BME280;41332;42.702;23.200;2022-10-26T05:11:00;94538.25;;;11.63;71.69
55468;BME280;41332;42.702;23.200;2022-10-26T05:13:25;94538.88;;;11.69;71.16
55468;BME280;41332;42.702;23.200;2022-10-26T05:15:53;94541.78;;;11.76;70.80
55468;BME280;41332;42.702;23.200;2022-10-26T05:18:18;94532.34;;;11.75;70.58
55468;BME280;41332;42.702;23.200;2022-10-26T05:20:44;94535.34;;;11.95;70.72
55468;BME280;41332;42.702;23.200;2022-10-26T05:23:10;94523.00;;;11.95;70.18
55468;BME280;41332;42.702;23.200;2022-10-26T05:25:38;94530.06;;;12.03;70.04
55468;BME280;41332;42.702;23.200;2022-10-26T05:28:06;94547.22;;;12.10;69.87
55468;BME280;41332;42.702;23.200;2022-10-26T05:30:36;94529.44;;;12.07;69.52
55468;BME280;41332;42.702;23.200;2022-10-26T05:33:02;94537.22;;;12.24;69.36
55468;BME280;41332;42.702;23.200;2022-10-26T05:35:28;94545.13;;;12.54;69.11
55468;BME280;41332;42.702;23.200;2022-10-26T05:37:54;94541.13;;;12.69;68.61
55468;BME280;41332;42.702;23.200;2022-10-26T05:40:19;94539.63;;;13.35;67.35
55468;BME280;41332;42.702;23.200;2022-10-26T05:42:45;94538.94;;;14.33;64.46
55468;BME280;41332;42.702;23.200;2022-10-26T05:45:11;94553.13;;;15.51;60.91
55468;BME280;41332;42.702;23.200;2022-10-26T05:47:41;94554.50;;;16.60;58.07
55468;BME280;41332;42.702;23.200;2022-10-26T05:50:08;94540.03;;;17.56;55.05
55468;BME280;41332;42.702;23.200;2022-10-26T05:52:43;94545.84;;;18.61;52.20
55468;BME280;41332;42.702;23.200;2022-10-26T05:55:12;94540.38;;;19.46;50.40
55468;BME280;41332;42.702;23.200;2022-10-26T05:57:38;94552.91;;;20.35;47.85
55468;BME280;41332;42.702;23.200;2022-10-26T06:00:20;94556.75;;;21.15;46.17
55468;BME280;41332;42.702;23.200;2022-10-26T06:05:58;94565.25;;;22.86;42.50
55468;BME280;41332;42.702;23.200;2022-10-26T06:08:25;94563.50;;;23.50;40.68
55468;BME280;41332;42.702;23.200;2022-10-26T06:10:52;94561.25;;;24.01;39.71
55468;BME280;41332;42.702;23.200;2022-10-26T06:13:18;94573.81;;;24.57;38.25
55468;BME280;41332;42.702;23.200;2022-10-26T06:23:50;94575.66;;;26.66;33.83
55468;BME280;41332;42.702;23.200;2022-10-26T06:26:39;94580.41;;;27.02;33.04
55468;BME280;41332;42.702;23.200;2022-10-26T06:31:53;94574.78;;;28.06;31.75
55468;BME280;41332;42.702;23.200;2022-10-26T06:34:32;94561.66;;;28.54;30.84
55468;BME280;41332;42.702;23.200;2022-10-26T06:36:59;94571.50;;;29.07;29.55
55468;BME280;41332;42.702;23.200;2022-10-26T06:39:27;94565.00;;;29.47;29.25
55468;BME280;41332;42.702;23.200;2022-10-26T06:41:55;94568.28;;;29.93;28.41
55468;BME280;41332;42.702;23.200;2022-10-26T06:44:22;94569.94;;;30.38;27.20
55468;BME280;41332;42.702;23.200;2022-10-26T06:50:10;94578.28;;;31.14;26.15
55468;BME280;41332;42.702;23.200;2022-10-26T06:52:54;94587.81;;;31.28;25.50
55468;BME280;41332;42.702;23.200;2022-10-26T06:55:22;94584.69;;;31.61;25.74
55468;BME280;41332;42.702;23.200;2022-10-26T06:57:48;94581.22;;;31.92;24.61
55468;BME280;41332;42.702;23.200;2022-10-26T07:02:43;94587.09;;;32.50;23.58
55468;BME280;41332;42.702;23.200;2022-10-26T07:05:09;94596.81;;;32.79;23.68
55468;BME280;41332;42.702;23.200;2022-10-26T07:07:41;94585.03;;;32.91;22.98
55468;BME280;41332;42.702;23.200;2022-10-26T07:10:07;94590.59;;;33.15;22.91
55468;BME280;41332;42.702;23.200;2022-10-26T07:12:33;94592.88;;;33.08;22.81
55468;BME280;41332;42.702;23.200;2022-10-26T07:14:59;94587.31;;;33.02;22.54
55468;BME280;41332;42.702;23.200;2022-10-26T07:17:24;94593.19;;;33.28;22.51
55468;BME280;41332;42.702;23.200;2022-10-26T07:19:52;94593.56;;;33.55;22.14
55468;BME280;41332;42.702;23.200;2022-10-26T07:22:18;94588.34;;;33.75;21.76
55468;BME280;41332;42.702;23.200;2022-10-26T07:24:43;94589.38;;;33.96;21.59
55468;BME280;41332;42.702;23.200;2022-10-26T07:27:09;94586.84;;;34.17;21.85
55468;BME280;41332;42.702;23.200;2022-10-26T07:29:34;94590.31;;;34.17;21.40
55468;BME280;41332;42.702;23.200;2022-10-26T07:31:59;94594.06;;;33.44;21.56
55468;BME280;41332;42.702;23.200;2022-10-26T07:34:25;94588.94;;;32.03;23.66
55468;BME280;41332;42.702;23.200;2022-10-26T07:36:50;94594.72;;;31.73;24.09
55468;BME280;41332;42.702;23.200;2022-10-26T07:39:16;94597.34;;;31.86;23.54
55468;BME280;41332;42.702;23.200;2022-10-26T07:41:41;94600.94;;;31.83;23.77
55468;BME280;41332;42.702;23.200;2022-10-26T07:44:07;94599.75;;;32.25;23.72
55468;BME280;41332;42.702;23.200;2022-10-26T07:46:32;94594.16;;;32.29;23.48
55468;BME280;41332;42.702;23.200;2022-10-26T07:48:57;94593.03;;;31.98;23.96
55468;BME280;41332;42.702;23.200;2022-10-26T07:51:23;94596.91;;;32.47;23.10
55468;BME280;41332;42.702;23.200;2022-10-26T07:53:48;94584.44;;;32.87;22.74
55468;BME280;41332;42.702;23.200;2022-10-26T07:56:14;94589.56;;;33.03;22.61
55468;BME280;41332;42.702;23.200;2022-10-26T07:58:40;94592.25;;;32.66;22.51
55468;BME280;41332;42.702;23.200;2022-10-26T08:01:10;94589.03;;;32.21;23.38
55468;BME280;41332;42.702;23.200;2022-10-26T08:03:36;94588.06;;;32.84;22.37
55468;BME280;41332;42.702;23.200;2022-10-26T08:06:02;94596.44;;;31.58;23.63
55468;BME280;41332;42.702;23.200;2022-10-26T08:08:30;94585.28;;;31.56;23.83
55468;BME280;41332;42.702;23.200;2022-10-26T08:10:56;94582.72;;;32.34;23.37
55468;BME280;41332;42.702;23.200;2022-10-26T08:13:21;94577.19;;;32.93;22.11
55468;BME280;41332;42.702;23.200;2022-10-26T08:15:47;94571.22;;;33.41;21.97
55468;BME280;41332;42.702;23.200;2022-10-26T08:18:13;94581.03;;;33.48;21.90
55468;BME280;41332;42.702;23.200;2022-10-26T08:20:38;94583.22;;;32.79;22.16
55468;BME280;41332;42.702;23.200;2022-10-26T08:23:04;94584.00;;;32.98;22.30
55468;BME280;41332;42.702;23.200;2022-10-26T08:25:31;94571.75;;;32.93;22.01
55468;BME280;41332;42.702;23.200;2022-10-26T08:28:00;94578.72;;;32.85;22.10
55468;BME280;41332;42.702;23.200;2022-10-26T08:30:26;94577.16;;;33.12;21.83
55468;BME280;41332;42.702;23.200;2022-10-26T08:33:02;94580.47;;;32.60;22.15
55468;BME280;41332;42.702;23.200;2022-10-26T08:35:28;94582.91;;;32.58;22.16
55468;BME280;41332;42.702;23.200;2022-10-26T08:37:54;94589.47;;;32.20;22.51
55468;BME280;41332;42.702;23.200;2022-10-26T08:40:29;94584.59;;;30.98;23.23
55468;BME280;41332;42.702;23.200;2022-10-26T08:45:39;94586.44;;;28.20;27.07
55468;BME280;41332;42.702;23.200;2022-10-26T08:48:12;94586.91;;;27.45;29.24
55468;BME280;41332;42.702;23.200;2022-10-26T08:50:47;94588.78;;;26.16;30.64
55468;BME280;41332;42.702;23.200;2022-10-26T08:53:31;94587.88;;;25.10;32.11
55468;BME280;41332;42.702;23.200;2022-10-26T08:56:16;94602.22;;;24.09;34.25
55468;BME280;41332;42.702;23.200;2022-10-26T08:58:49;94599.91;;;23.44;35.92
55468;BME280;41332;42.702;23.200;2022-10-26T09:01:20;94591.72;;;22.59;37.06
55468;BME280;41332;42.702;23.200;2022-10-26T09:03:45;94606.63;;;22.20;37.73
55468;BME280;41332;42.702;23.200;2022-10-26T09:09:06;94596.53;;;21.41;39.70
55468;BME280;41332;42.702;23.200;2022-10-26T09:14:37;94594.38;;;20.81;40.66
55468;BME280;41332;42.702;23.200;2022-10-26T09:17:17;94600.53;;;20.33;42.11
55468;BME280;41332;42.702;23.200;2022-10-26T09:23:00;94586.19;;;20.03;42.83
55468;BME280;41332;42.702;23.200;2022-10-26T09:25:37;94589.13;;;19.87;43.45
55468;BME280;41332;42.702;23.200;2022-10-26T09:28:03;94596.63;;;19.78;43.71
55468;BME280;41332;42.702;23.200;2022-10-26T09:30:30;94582.81;;;20.06;43.29
55468;BME280;41332;42.702;23.200;2022-10-26T09:32:59;94587.34;;;20.06;42.52
55468;BME280;41332;42.702;23.200;2022-10-26T09:35:30;94587.88;;;20.22;43.14
55468;BME280;41332;42.702;23.200;2022-10-26T09:38:23;94584.91;;;20.31;42.20
55468;BME280;41332;42.702;23.200;2022-10-26T09:40:57;94584.53;;;20.33;42.58
55468;BME280;41332;42.702;23.200;2022-10-26T09:46:57;94578.50;;;21.13;41.42
55468;BME280;41332;42.702;23.200;2022-10-26T09:49:30;94578.22;;;21.40;40.51
55468;BME280;41332;42.702;23.200;2022-10-26T09:51:57;94574.34;;;21.30;40.00
55468;BME280;41332;42.702;23.200;2022-10-26T09:54:23;94577.16;;;21.63;39.93
55468;BME280;41332;42.702;23.200;2022-10-26T09:56:51;94574.13;;;21.89;38.61
55468;BME280;41332;42.702;23.200;2022-10-26T09:59:21;94571.44;;;21.71;38.44
55468;BME280;41332;42.702;23.200;2022-10-26T10:01:47;94567.94;;;21.53;39.06
55468;BME280;41332;42.702;23.200;2022-10-26T10:06:41;94562.91;;;21.19;40.53
55468;BME280;41332;42.702;23.200;2022-10-26T10:11:41;94557.69;;;21.55;40.44
55468;BME280;41332;42.702;23.200;2022-10-26T10:14:11;94553.75;;;21.23;39.61
55468;BME280;41332;42.702;23.200;2022-10-26T10:16:39;94551.00;;;21.05;40.90
55468;BME280;41332;42.702;23.200;2022-10-26T10:19:05;94559.47;;;21.22;40.67
55468;BME280;41332;42.702;23.200;2022-10-26T10:22:23;94560.28;;;21.40;39.46
55468;BME280;41332;42.702;23.200;2022-10-26T10:24:58;94556.09;;;21.47;39.32
55468;BME280;41332;42.702;23.200;2022-10-26T10:27:24;94553.00;;;21.34;39.54
55468;BME280;41332;42.702;23.200;2022-10-26T10:29:51;94547.28;;;21.32;39.50
55468;BME280;41332;42.702;23.200;2022-10-26T10:32:28;94540.03;;;21.32;39.70
55468;BME280;41332;42.702;23.200;2022-10-26T10:34:58;94546.94;;;21.44;38.75
55468;BME280;41332;42.702;23.200;2022-10-26T10:37:40;94539.72;;;21.55;37.69
55468;BME280;41332;42.702;23.200;2022-10-26T10:42:45;94538.59;;;21.60;37.73
55468;BME280;41332;42.702;23.200;2022-10-26T10:48:04;94540.91;;;21.98;36.70
55468;BME280;41332;42.702;23.200;2022-10-26T10:50:31;94535.94;;;22.00;35.72
55468;BME280;41332;42.702;23.200;2022-10-26T10:53:20;94534.00;;;21.86;37.34
55468;BME280;41332;42.702;23.200;2022-10-26T11:07:05;94526.38;;;22.17;35.89
55468;BME280;41332;42.702;23.200;2022-10-26T11:09:35;94517.56;;;22.27;35.24
55468;BME280;41332;42.702;23.200;2022-10-26T11:12:12;94517.97;;;22.29;35.72
55468;BME280;41332;42.702;23.200;2022-10-26T11:14:43;94526.00;;;22.36;34.50
55468;BME280;41332;42.702;23.200;2022-10-26T11:17:19;94521.81;;;22.39;34.42
55468;BME280;41332;42.702;23.200;2022-10-26T11:20:11;94519.50;;;22.37;34.14
55468;BME280;41332;42.702;23.200;2022-10-26T11:22:59;94514.53;;;22.29;33.11
55468;BME280;41332;42.702;23.200;2022-10-26T11:25:30;94519.50;;;22.34;33.04
55468;BME280;41332;42.702;23.200;2022-10-26T11:28:04;94518.75;;;22.26;33.15
55468;BME280;41332;42.702;23.200;2022-10-26T11:30:40;94511.47;;;22.34;33.86
55468;BME280;41332;42.702;23.200;2022-10-26T11:36:18;94510.31;;;22.24;33.09
55468;BME280;41332;42.702;23.200;2022-10-26T11:39:59;94519.13;;;22.21;32.90
55468;BME280;41332;42.702;23.200;2022-10-26T11:42:25;94505.00;;;22.06;33.08
55468;BME280;41332;42.702;23.200;2022-10-26T11:48:42;94502.66;;;22.30;33.31
55468;BME280;41332;42.702;23.200;2022-10-26T11:50:44;94503.44;;;22.41;33.32
55468;BME280;41332;42.702;23.200;2022-10-26T11:53:17;94496.94;;;22.42;33.10
55468;BME280;41332;42.702;23.200;2022-10-26T11:55:50;94491.94;;;22.59;33.25
55468;BME280;41332;42.702;23.200;2022-10-26T11:58:17;94505.31;;;22.55;33.25
55468;BME280;41332;42.702;23.200;2022-10-26T12:01:02;94500.75;;;22.48;33.65
55468;BME280;41332;42.702;23.200;2022-10-26T12:03:35;94484.31;;;22.53;33.31
55468;BME280;41332;42.702;23.200;2022-10-26T12:06:02;94491.16;;;22.54;32.99
55468;BME280;41332;42.702;23.200;2022-10-26T12:08:54;94490.75;;;22.70;33.07
55468;BME280;41332;42.702;23.200;2022-10-26T12:11:30;94496.16;;;22.45;32.41
55468;BME280;41332;42.702;23.200;2022-10-26T12:14:02;94495.78;;;22.39;33.17
55468;BME280;41332;42.702;23.200;2022-10-26T12:19:19;94487.78;;;22.29;32.70
55468;BME280;41332;42.702;23.200;2022-10-26T12:21:48;94484.72;;;22.30;32.76
55468;BME280;41332;42.702;23.200;2022-10-26T12:27:08;94483.59;;;22.02;32.46
55468;BME280;41332;42.702;23.200;2022-10-26T12:29:45;94493.53;;;21.98;31.89
55468;BME280;41332;42.702;23.200;2022-10-26T12:37:35;94489.34;;;21.90;31.10
55468;BME280;41332;42.702;23.200;2022-10-26T12:42:51;94497.34;;;22.01;30.45
55468;BME280;41332;42.702;23.200;2022-10-26T12:45:20;94492.75;;;22.09;30.35
55468;BME280;41332;42.702;23.200;2022-10-26T13:00:25;94504.63;;;21.75;29.34
55468;BME280;41332;42.702;23.200;2022-10-26T13:05:33;94501.88;;;21.43;29.53
55468;BME280;41332;42.702;23.200;2022-10-26T13:08:07;94507.22;;;21.28;29.67
55468;BME280;41332;42.702;23.200;2022-10-26T13:10:34;94500.31;;;21.23;29.62
55468;BME280;41332;42.702;23.200;2022-10-26T13:13:04;94499.59;;;21.27;29.27
55468;BME280;41332;42.702;23.200;2022-10-26T13:15:52;94512.13;;;21.22;29.45
55468;BME280;41332;42.702;23.200;2022-10-26T13:18:19;94506.44;;;21.31;29.79
55468;BME280;41332;42.702;23.200;2022-10-26T13:21:39;94503.75;;;21.20;29.53
55468;BME280;41332;42.702;23.200;2022-10-26T13:23:58;94503.38;;;21.33;29.89
55468;BME280;41332;42.702;23.200;2022-10-26T13:26:30;94499.91;;;21.14;29.22
55468;BME280;41332;42.702;23.200;2022-10-26T13:28:59;94512.84;;;21.01;29.20
55468;BME280;41332;42.702;23.200;2022-10-26T13:33:59;94513.56;;;20.91;29.84
55468;BME280;41332;42.702;23.200;2022-10-26T13:36:32;94513.19;;;20.85;29.48
55468;BME280;41332;42.702;23.200;2022-10-26T13:39:05;94517.75;;;20.88;30.01
55468;BME280;41332;42.702;23.200;2022-10-26T13:41:40;94501.72;;;20.78;29.88
55468;BME280;41332;42.702;23.200;2022-10-26T13:44:13;94515.47;;;20.87;29.93
55468;BME280;41332;42.702;23.200;2022-10-26T13:46:40;94513.16;;;20.78;30.13
55468;BME280;41332;42.702;23.200;2022-10-26T13:49:14;94518.88;;;20.77;30.76
55468;BME280;41332;42.702;23.200;2022-10-26T13:51:45;94514.97;;;20.67;31.04
55468;BME280;41332;42.702;23.200;2022-10-26T13:54:24;94507.69;;;20.60;31.76
55468;BME280;41332;42.702;23.200;2022-10-26T13:57:03;94506.59;;;20.65;32.14
55468;BME280;41332;42.702;23.200;2022-10-26T13:59:30;94516.09;;;20.62;32.37
55468;BME280;41332;42.702;23.200;2022-10-26T14:04:38;94526.00;;;20.62;32.79
55468;BME280;41332;42.702;23.200;2022-10-26T14:07:11;94520.31;;;20.63;33.24
55468;BME280;41332;42.702;23.200;2022-10-26T14:10:01;94515.63;;;20.46;33.08
55468;BME280;41332;42.702;23.200;2022-10-26T14:12:26;94508.72;;;20.34;33.25
55468;BME280;41332;42.702;23.200;2022-10-26T14:15:08;94526.69;;;20.44;33.29
55468;BME280;41332;42.702;23.200;2022-10-26T14:17:49;94504.06;;;20.23;33.62
55468;BME280;41332;42.702;23.200;2022-10-26T14:20:20;94526.63;;;20.37;33.49
55468;BME280;41332;42.702;23.200;2022-10-26T14:22:46;94531.19;;;20.36;33.16
55468;BME280;41332;42.702;23.200;2022-10-26T14:27:43;94528.06;;;20.23;33.83
55468;BME280;41332;42.702;23.200;2022-10-26T14:30:28;94528.84;;;20.28;33.77
55468;BME280;41332;42.702;23.200;2022-10-26T14:32:55;94527.31;;;20.26;33.41
55468;BME280;41332;42.702;23.200;2022-10-26T14:35:24;94521.97;;;20.19;33.36
55468;BME280;41332;42.702;23.200;2022-10-26T14:38:02;94523.88;;;20.22;33.34
55468;BME280;41332;42.702;23.200;2022-10-26T14:40:33;94522.69;;;20.16;33.31
55468;BME280;41332;42.702;23.200;2022-10-26T14:43:01;94532.53;;;20.05;33.44
55468;BME280;41332;42.702;23.200;2022-10-26T14:45:32;94532.88;;;20.03;33.17
55468;BME280;41332;42.702;23.200;2022-10-26T14:48:00;94525.19;;;19.91;33.50
55468;BME280;41332;42.702;23.200;2022-10-26T14:50:26;94527.78;;;19.84;33.86
55468;BME280;41332;42.702;23.200;2022-10-26T14:53:13;94533.00;;;19.73;33.92
55468;BME280;41332;42.702;23.200;2022-10-26T14:55:50;94534.41;;;19.63;34.04
55468;BME280;41332;42.702;23.200;2022-10-26T14:58:22;94522.09;;;19.44;34.80
55468;BME280;41332;42.702;23.200;2022-10-26T15:04:20;94534.59;;;19.40;35.67
55468;BME280;41332;42.702;23.200;2022-10-26T15:06:50;94533.00;;;19.32;35.60
55468;BME280;41332;42.702;23.200;2022-10-26T15:09:51;94543.59;;;19.28;36.42
55468;BME280;41332;42.702;23.200;2022-10-26T15:12:28;94543.94;;;19.23;36.37
55468;BME280;41332;42.702;23.200;2022-10-26T15:17:56;94549.34;;;18.96;36.64
55468;BME280;41332;42.702;23.200;2022-10-26T15:20:25;94552.31;;;18.91;36.98
55468;BME280;41332;42.702;23.200;2022-10-26T15:22:59;94555.59;;;18.81;37.08
55468;BME280;41332;42.702;23.200;2022-10-26T15:25:31;94557.03;;;18.74;37.69
55468;BME280;41332;42.702;23.200;2022-10-26T15:30:35;94565.16;;;18.58;37.60